sensor_id;sensor_type;location;lat;lon;timestamp;temperature;humidity
7204;DHT22;3643;52.460;13.322;2023-05-10T00:01:56;11.80;94.10
7204;DHT22;3643;52.460;13.322;2023-05-10T00:04:25;11.80;94.20
7204;DHT22;3643;52.460;13.322;2023-05-10T00:06:54;11.70;94.20
7204;DHT22;3643;52.460;13.322;2023-05-10T00:09:22;11.70;94.40
7204;DHT22;3643;52.460;13.322;2023-05-10T00:11:51;11.70;94.40
7204;DHT22;3643;52.460;13.322;2023-05-10T00:14:19;11.70;94.50
7204;DHT22;3643;52.460;13.322;2023-05-10T00:16:48;11.70;94.60
7204;DHT22;3643;52.460;13.322;2023-05-10T00:19:18;11.70;94.70
7204;DHT22;3643;52.460;13.322;2023-05-10T00:21:46;11.70;94.70
7204;DHT22;3643;52.460;13.322;2023-05-10T00:24:15;11.70;94.70
7204;DHT22;3643;52.460;13.322;2023-05-10T00:26:43;11.70;94.70
7204;DHT22;3643;52.460;13.322;2023-05-10T00:29:11;11.70;94.90
7204;DHT22;3643;52.460;13.322;2023-05-10T00:31:40;11.60;94.90
7204;DHT22;3643;52.460;13.322;2023-05-10T00:34:08;11.60;94.90
7204;DHT22;3643;52.460;13.322;2023-05-10T00:36:38;11.60;94.90
7204;DHT22;3643;52.460;13.322;2023-05-10T00:39:07;11.60;94.90
7204;DHT22;3643;52.460;13.322;2023-05-10T00:41:36;11.70;94.80
7204;DHT22;3643;52.460;13.322;2023-05-10T00:44:04;11.70;94.80
7204;DHT22;3643;52.460;13.322;2023-05-10T00:46:33;11.60;94.80
7204;DHT22;3643;52.460;13.322;2023-05-10T00:49:02;11.70;94.80
7204;DHT22;3643;52.460;13.322;2023-05-10T00:51:31;11.60;94.80
7204;DHT22;3643;52.460;13.322;2023-05-10T00:54:01;11.60;94.90
7204;DHT22;3643;52.460;13.322;2023-05-10T00:56:30;11.60;94.80
7204;DHT22;3643;52.460;13.322;2023-05-10T00:59:00;11.60;94.90
7204;DHT22;3643;52.460;13.322;2023-05-10T01:01:28;11.60;95.00
7204;DHT22;3643;52.460;13.322;2023-05-10T01:03:58;11.60;95.10
7204;DHT22;3643;52.460;13.322;2023-05-10T01:06:26;11.50;95.20
7204;DHT22;3643;52.460;13.322;2023-05-10T01:08:55;11.50;95.40
7204;DHT22;3643;52.460;13.322;2023-05-10T01:11:25;11.40;95.60
7204;DHT22;3643;52.460;13.322;2023-05-10T03:32:03;9.90;99.90
7204;DHT22;3643;52.460;13.322;2023-05-10T03:34:32;10.70;99.90
7204;DHT22;3643;52.460;13.322;2023-05-10T03:37:00;9.90;99.90
7204;DHT22;3643;52.460;13.322;2023-05-10T03:39:28;9.90;99.90
7204;DHT22;3643;52.460;13.322;2023-05-10T03:41:57;9.90;99.90
7204;DHT22;3643;52.460;13.322;2023-05-10T03:44:25;9.90;99.90
7204;DHT22;3643;52.460;13.322;2023-05-10T03:46:54;9.90;99.90
7204;DHT22;3643;52.460;13.322;2023-05-10T03:49:25;9.30;99.90
7204;DHT22;3643;52.460;13.322;2023-05-10T03:51:53;10.00;99.90
7204;DHT22;3643;52.460;13.322;2023-05-10T03:54:22;10.00;99.90
7204;DHT22;3643;52.460;13.322;2023-05-10T03:56:50;10.00;99.90
7204;DHT22;3643;52.460;13.322;2023-05-10T03:59:19;10.00;99.90
7204;DHT22;3643;52.460;13.322;2023-05-10T04:01:47;10.00;99.90
7204;DHT22;3643;52.460;13.322;2023-05-10T04:04:15;10.00;99.90
7204;DHT22;3643;52.460;13.322;2023-05-10T04:06:46;10.10;99.90
7204;DHT22;3643;52.460;13.322;2023-05-10T04:09:15;10.10;99.90
7204;DHT22;3643;52.460;13.322;2023-05-10T04:11:43;10.30;99.90
7204;DHT22;3643;52.460;13.322;2023-05-10T04:14:11;10.20;99.90
7204;DHT22;3643;52.460;13.322;2023-05-10T04:16:39;10.20;99.90
7204;DHT22;3643;52.460;13.322;2023-05-10T04:19:07;10.20;99.90
7204;DHT22;3643;52.460;13.322;2023-05-10T04:21:36;10.30;99.90
7204;DHT22;3643;52.460;13.322;2023-05-10T04:24:06;10.30;99.90
7204;DHT22;3643;52.460;13.322;2023-05-10T04:26:34;10.30;99.90
7204;DHT22;3643;52.460;13.322;2023-05-10T04:29:02;10.30;99.90
7204;DHT22;3643;52.460;13.322;2023-05-10T04:31:30;10.40;99.90
7204;DHT22;3643;52.460;13.322;2023-05-10T04:33:58;10.40;99.90
7204;DHT22;3643;52.460;13.322;2023-05-10T04:36:26;10.50;99.90
7204;DHT22;3643;52.460;13.322;2023-05-10T04:38:54;10.60;99.90
7204;DHT22;3643;52.460;13.322;2023-05-10T04:41:23;10.60;99.90
7204;DHT22;3643;52.460;13.322;2023-05-10T04:43:52;9.60;99.90
7204;DHT22;3643;52.460;13.322;2023-05-10T04:46:20;10.70;99.90
7204;DHT22;3643;52.460;13.322;2023-05-10T04:48:48;10.70;99.90
7204;DHT22;3643;52.460;13.322;2023-05-10T04:51:16;10.80;99.90
7204;DHT22;3643;52.460;13.322;2023-05-10T04:53:44;10.90;99.90
7204;DHT22;3643;52.460;13.322;2023-05-10T04:56:32;10.90;99.90
7204;DHT22;3643;52.460;13.322;2023-05-10T04:59:00;11.00;99.90
7204;DHT22;3643;52.460;13.322;2023-05-10T05:01:29;11.20;99.90
7204;DHT22;3643;52.460;13.322;2023-05-10T05:03:57;11.20;99.60
7204;DHT22;3643;52.460;13.322;2023-05-10T05:06:26;11.30;99.40
7204;DHT22;3643;52.460;13.322;2023-05-10T05:08:54;11.40;99.50
7204;DHT22;3643;52.460;13.322;2023-05-10T05:11:22;11.60;99.30
7204;DHT22;3643;52.460;13.322;2023-05-10T05:13:51;11.80;98.80
7204;DHT22;3643;52.460;13.322;2023-05-10T05:16:20;12.70;99.90
7204;DHT22;3643;52.460;13.322;2023-05-10T05:18:48;14.40;96.50
7204;DHT22;3643;52.460;13.322;2023-05-10T05:21:17;16.30;93.60
7204;DHT22;3643;52.460;13.322;2023-05-10T05:23:46;18.10;91.40
7204;DHT22;3643;52.460;13.322;2023-05-10T05:26:14;19.20;90.80
7204;DHT22;3643;52.460;13.322;2023-05-10T05:28:42;20.70;88.60
7204;DHT22;3643;52.460;13.322;2023-05-10T05:31:12;20.70;85.90
7204;DHT22;3643;52.460;13.322;2023-05-10T05:33:40;21.30;84.60
7204;DHT22;3643;52.460;13.322;2023-05-10T05:36:09;21.60;82.70
7204;DHT22;3643;52.460;13.322;2023-05-10T05:38:37;22.30;82.40
7204;DHT22;3643;52.460;13.322;2023-05-10T05:41:05;21.90;81.80
7204;DHT22;3643;52.460;13.322;2023-05-10T05:43:33;22.20;82.60
7204;DHT22;3643;52.460;13.322;2023-05-10T05:46:04;22.50;81.00
7204;DHT22;3643;52.460;13.322;2023-05-10T05:48:33;22.70;80.30
7204;DHT22;3643;52.460;13.322;2023-05-10T05:51:02;22.20;80.50
7204;DHT22;3643;52.460;13.322;2023-05-10T05:53:33;22.40;81.90
7204;DHT22;3643;52.460;13.322;2023-05-10T05:56:02;23.20;81.70
7204;DHT22;3643;52.460;13.322;2023-05-10T05:58:30;23.70;78.60
7204;DHT22;3643;52.460;13.322;2023-05-10T06:00:58;23.10;79.50
7204;DHT22;3643;52.460;13.322;2023-05-10T06:03:26;23.40;80.40
7204;DHT22;3643;52.460;13.322;2023-05-10T06:05:56;24.30;78.70
7204;DHT22;3643;52.460;13.322;2023-05-10T06:08:24;25.00;77.70
7204;DHT22;3643;52.460;13.322;2023-05-10T06:10:52;26.30;76.70
7204;DHT22;3643;52.460;13.322;2023-05-10T06:13:20;27.00;74.20
7204;DHT22;3643;52.460;13.322;2023-05-10T06:15:49;27.30;74.60
7204;DHT22;3643;52.460;13.322;2023-05-10T06:18:17;27.70;73.30
7204;DHT22;3643;52.460;13.322;2023-05-10T06:20:45;28.50;71.70
7204;DHT22;3643;52.460;13.322;2023-05-10T06:23:15;28.40;71.90
7204;DHT22;3643;52.460;13.322;2023-05-10T06:25:43;28.40;72.30
7204;DHT22;3643;52.460;13.322;2023-05-10T06:28:11;29.20;71.90
7204;DHT22;3643;52.460;13.322;2023-05-10T06:30:39;29.40;69.90
7204;DHT22;3643;52.460;13.322;2023-05-10T06:33:08;29.30;69.70
7204;DHT22;3643;52.460;13.322;2023-05-10T06:35:36;29.00;70.40
7204;DHT22;3643;52.460;13.322;2023-05-10T06:38:04;29.30;69.70
7204;DHT22;3643;52.460;13.322;2023-05-10T06:40:34;28.50;70.10
7204;DHT22;3643;52.460;13.322;2023-05-10T06:43:02;27.90;70.10
7204;DHT22;3643;52.460;13.322;2023-05-10T06:45:30;27.40;69.30
7204;DHT22;3643;52.460;13.322;2023-05-10T06:47:59;27.50;71.20
7204;DHT22;3643;52.460;13.322;2023-05-10T06:50:27;27.50;70.40
7204;DHT22;3643;52.460;13.322;2023-05-10T06:52:56;26.50;70.10
7204;DHT22;3643;52.460;13.322;2023-05-10T06:55:24;27.30;71.70
7204;DHT22;3643;52.460;13.322;2023-05-10T06:57:53;27.70;71.00
7204;DHT22;3643;52.460;13.322;2023-05-10T07:00:22;28.90;68.70
7204;DHT22;3643;52.460;13.322;2023-05-10T07:02:50;28.20;70.20
7204;DHT22;3643;52.460;13.322;2023-05-10T07:05:19;29.30;69.00
7204;DHT22;3643;52.460;13.322;2023-05-10T07:07:47;28.50;67.70
7204;DHT22;3643;52.460;13.322;2023-05-10T07:10:16;27.40;69.00
7204;DHT22;3643;52.460;13.322;2023-05-10T07:12:44;26.90;69.80
7204;DHT22;3643;52.460;13.322;2023-05-10T07:15:14;27.00;69.80
7204;DHT22;3643;52.460;13.322;2023-05-10T07:17:43;27.00;69.70
7204;DHT22;3643;52.460;13.322;2023-05-10T07:20:12;25.80;71.20
7204;DHT22;3643;52.460;13.322;2023-05-10T07:22:41;25.90;72.00
7204;DHT22;3643;52.460;13.322;2023-05-10T07:25:09;26.90;71.40
7204;DHT22;3643;52.460;13.322;2023-05-10T07:27:37;28.10;70.90
7204;DHT22;3643;52.460;13.322;2023-05-10T07:30:07;28.90;70.60
7204;DHT22;3643;52.460;13.322;2023-05-10T07:32:36;28.60;67.90
7204;DHT22;3643;52.460;13.322;2023-05-10T07:35:06;27.70;69.20
7204;DHT22;3643;52.460;13.322;2023-05-10T07:37:35;27.30;70.20
7204;DHT22;3643;52.460;13.322;2023-05-10T07:40:04;26.20;72.80
7204;DHT22;3643;52.460;13.322;2023-05-10T07:42:32;27.10;70.30
7204;DHT22;3643;52.460;13.322;2023-05-10T07:45:00;27.50;70.10
7204;DHT22;3643;52.460;13.322;2023-05-10T07:47:28;28.10;69.40
7204;DHT22;3643;52.460;13.322;2023-05-10T07:49:58;28.30;69.30
7204;DHT22;3643;52.460;13.322;2023-05-10T07:52:26;28.60;68.90
7204;DHT22;3643;52.460;13.322;2023-05-10T07:54:54;28.40;68.60
7204;DHT22;3643;52.460;13.322;2023-05-10T07:57:23;28.20;69.00
7204;DHT22;3643;52.460;13.322;2023-05-10T07:59:51;28.50;68.80
7204;DHT22;3643;52.460;13.322;2023-05-10T08:02:20;27.00;69.50
7204;DHT22;3643;52.460;13.322;2023-05-10T08:04:48;26.50;70.70
7204;DHT22;3643;52.460;13.322;2023-05-10T08:07:17;27.00;70.30
7204;DHT22;3643;52.460;13.322;2023-05-10T08:09:46;27.60;70.40
7204;DHT22;3643;52.460;13.322;2023-05-10T08:12:14;26.90;69.80
7204;DHT22;3643;52.460;13.322;2023-05-10T08:14:42;27.00;70.40
7204;DHT22;3643;52.460;13.322;2023-05-10T08:17:11;26.90;70.20
7204;DHT22;3643;52.460;13.322;2023-05-10T08:19:39;27.00;70.10
7204;DHT22;3643;52.460;13.322;2023-05-10T08:22:07;26.90;71.00
7204;DHT22;3643;52.460;13.322;2023-05-10T08:24:36;26.70;70.90
7204;DHT22;3643;52.460;13.322;2023-05-10T08:27:06;27.00;69.50
7204;DHT22;3643;52.460;13.322;2023-05-10T08:29:34;25.40;71.00
7204;DHT22;3643;52.460;13.322;2023-05-10T08:32:16;26.00;72.60
7204;DHT22;3643;52.460;13.322;2023-05-10T08:34:44;26.30;72.10
7204;DHT22;3643;52.460;13.322;2023-05-10T08:37:12;25.80;72.10
7204;DHT22;3643;52.460;13.322;2023-05-10T08:39:42;25.30;71.40
7204;DHT22;3643;52.460;13.322;2023-05-10T08:42:10;24.10;73.50
7204;DHT22;3643;52.460;13.322;2023-05-10T08:44:39;23.00;76.80
7204;DHT22;3643;52.460;13.322;2023-05-10T08:47:08;22.50;76.30
7204;DHT22;3643;52.460;13.322;2023-05-10T08:49:37;21.80;76.60
7204;DHT22;3643;52.460;13.322;2023-05-10T08:52:05;21.20;78.90
7204;DHT22;3643;52.460;13.322;2023-05-10T08:54:35;21.10;79.20
7204;DHT22;3643;52.460;13.322;2023-05-10T08:57:06;20.70;78.40
7204;DHT22;3643;52.460;13.322;2023-05-10T08:59:34;21.30;79.80
7204;DHT22;3643;52.460;13.322;2023-05-10T09:02:04;21.50;81.00
7204;DHT22;3643;52.460;13.322;2023-05-10T09:04:32;20.50;80.60
7204;DHT22;3643;52.460;13.322;2023-05-10T09:07:01;20.30;79.90
7204;DHT22;3643;52.460;13.322;2023-05-10T09:09:29;20.20;80.00
7204;DHT22;3643;52.460;13.322;2023-05-10T09:11:57;19.90;80.80
7204;DHT22;3643;52.460;13.322;2023-05-10T09:14:27;19.80;82.40
7204;DHT22;3643;52.460;13.322;2023-05-10T09:16:56;19.90;82.60
7204;DHT22;3643;52.460;13.322;2023-05-10T09:19:24;20.00;82.40
7204;DHT22;3643;52.460;13.322;2023-05-10T09:21:52;20.10;82.40
7204;DHT22;3643;52.460;13.322;2023-05-10T09:24:25;20.20;81.20
7204;DHT22;3643;52.460;13.322;2023-05-10T09:26:53;20.10;81.70
7204;DHT22;3643;52.460;13.322;2023-05-10T09:29:22;19.90;82.00
7204;DHT22;3643;52.460;13.322;2023-05-10T09:31:52;19.80;82.40
7204;DHT22;3643;52.460;13.322;2023-05-10T09:34:29;19.90;81.60
7204;DHT22;3643;52.460;13.322;2023-05-10T09:36:59;19.70;81.70
7204;DHT22;3643;52.460;13.322;2023-05-10T09:39:31;19.60;82.40
7204;DHT22;3643;52.460;13.322;2023-05-10T09:42:01;19.70;82.60
7204;DHT22;3643;52.460;13.322;2023-05-10T09:44:31;19.70;82.80
7204;DHT22;3643;52.460;13.322;2023-05-10T09:47:01;19.70;83.40
7204;DHT22;3643;52.460;13.322;2023-05-10T09:49:30;19.80;83.50
7204;DHT22;3643;52.460;13.322;2023-05-10T09:52:01;19.80;82.90
7204;DHT22;3643;52.460;13.322;2023-05-10T09:54:30;19.80;83.80
7204;DHT22;3643;52.460;13.322;2023-05-10T09:56:59;19.80;82.40
7204;DHT22;3643;52.460;13.322;2023-05-10T09:59:28;19.80;82.90
7204;DHT22;3643;52.460;13.322;2023-05-10T10:01:58;19.80;82.40
7204;DHT22;3643;52.460;13.322;2023-05-10T10:04:29;20.00;83.70
7204;DHT22;3643;52.460;13.322;2023-05-10T10:07:01;20.10;84.30
7204;DHT22;3643;52.460;13.322;2023-05-10T10:09:30;20.20;83.00
7204;DHT22;3643;52.460;13.322;2023-05-10T10:11:59;20.30;82.10
7204;DHT22;3643;52.460;13.322;2023-05-10T10:14:28;20.30;82.80
7204;DHT22;3643;52.460;13.322;2023-05-10T10:16:56;20.30;83.20
7204;DHT22;3643;52.460;13.322;2023-05-10T10:19:36;20.30;81.90
7204;DHT22;3643;52.460;13.322;2023-05-10T10:22:04;20.20;82.60
7204;DHT22;3643;52.460;13.322;2023-05-10T10:24:33;20.20;82.50
7204;DHT22;3643;52.460;13.322;2023-05-10T10:27:09;20.20;82.60
7204;DHT22;3643;52.460;13.322;2023-05-10T10:29:44;20.30;83.90
7204;DHT22;3643;52.460;13.322;2023-05-10T10:32:24;21.60;84.40
7204;DHT22;3643;52.460;13.322;2023-05-10T10:34:55;20.40;82.10
7204;DHT22;3643;52.460;13.322;2023-05-10T10:37:42;20.40;82.40
7204;DHT22;3643;52.460;13.322;2023-05-10T10:40:27;20.30;83.30
7204;DHT22;3643;52.460;13.322;2023-05-10T10:43:21;20.40;83.50
7204;DHT22;3643;52.460;13.322;2023-05-10T10:46:14;20.40;82.40
7204;DHT22;3643;52.460;13.322;2023-05-10T10:48:49;20.50;82.80
7204;DHT22;3643;52.460;13.322;2023-05-10T10:51:19;20.60;82.80
7204;DHT22;3643;52.460;13.322;2023-05-10T10:53:48;20.70;83.10
7204;DHT22;3643;52.460;13.322;2023-05-10T10:56:22;20.90;84.10
7204;DHT22;3643;52.460;13.322;2023-05-10T10:58:51;21.00;81.80
7204;DHT22;3643;52.460;13.322;2023-05-10T11:01:20;21.00;82.50
7204;DHT22;3643;52.460;13.322;2023-05-10T11:04:18;21.00;82.00
7204;DHT22;3643;52.460;13.322;2023-05-10T11:06:48;21.10;82.90
7204;DHT22;3643;52.460;13.322;2023-05-10T11:09:17;21.20;82.50
7204;DHT22;3643;52.460;13.322;2023-05-10T11:11:52;21.20;82.50
7204;DHT22;3643;52.460;13.322;2023-05-10T11:14:22;21.10;82.80
7204;DHT22;3643;52.460;13.322;2023-05-10T11:16:51;21.30;83.70
7204;DHT22;3643;52.460;13.322;2023-05-10T11:19:19;21.40;81.90
7204;DHT22;3643;52.460;13.322;2023-05-10T11:21:50;21.20;81.90
7204;DHT22;3643;52.460;13.322;2023-05-10T11:24:22;21.40;82.40
7204;DHT22;3643;52.460;13.322;2023-05-10T11:26:51;21.40;81.10
7204;DHT22;3643;52.460;13.322;2023-05-10T11:29:20;21.50;82.10
7204;DHT22;3643;52.460;13.322;2023-05-10T11:31:50;21.60;81.50
7204;DHT22;3643;52.460;13.322;2023-05-10T11:34:25;21.70;82.00
7204;DHT22;3643;52.460;13.322;2023-05-10T11:36:56;21.70;82.50
7204;DHT22;3643;52.460;13.322;2023-05-10T11:39:26;21.80;81.20
7204;DHT22;3643;52.460;13.322;2023-05-10T11:41:55;21.70;81.20
7204;DHT22;3643;52.460;13.322;2023-05-10T11:44:24;21.70;79.90
7204;DHT22;3643;52.460;13.322;2023-05-10T11:46:58;21.60;80.70
7204;DHT22;3643;52.460;13.322;2023-05-10T11:49:26;21.60;81.10
7204;DHT22;3643;52.460;13.322;2023-05-10T11:52:05;21.70;80.40
7204;DHT22;3643;52.460;13.322;2023-05-10T11:54:34;21.80;80.20
7204;DHT22;3643;52.460;13.322;2023-05-10T11:57:03;21.90;79.70
7204;DHT22;3643;52.460;13.322;2023-05-10T11:59:31;22.00;79.50
7204;DHT22;3643;52.460;13.322;2023-05-10T12:02:00;22.00;80.20
7204;DHT22;3643;52.460;13.322;2023-05-10T12:04:28;22.00;79.70
7204;DHT22;3643;52.460;13.322;2023-05-10T12:06:57;22.10;79.40
7204;DHT22;3643;52.460;13.322;2023-05-10T12:09:27;21.90;79.90
7204;DHT22;3643;52.460;13.322;2023-05-10T12:12:09;22.10;80.70
7204;DHT22;3643;52.460;13.322;2023-05-10T12:14:37;22.20;81.50
7204;DHT22;3643;52.460;13.322;2023-05-10T12:17:05;22.30;81.30
7204;DHT22;3643;52.460;13.322;2023-05-10T12:19:37;22.40;79.80
7204;DHT22;3643;52.460;13.322;2023-05-10T12:22:06;22.50;80.20
7204;DHT22;3643;52.460;13.322;2023-05-10T12:24:36;22.60;80.10
7204;DHT22;3643;52.460;13.322;2023-05-10T12:27:05;22.70;79.10
7204;DHT22;3643;52.460;13.322;2023-05-10T12:29:35;22.50;78.30
7204;DHT22;3643;52.460;13.322;2023-05-10T12:32:03;22.40;78.00
7204;DHT22;3643;52.460;13.322;2023-05-10T12:34:33;22.50;78.90
7204;DHT22;3643;52.460;13.322;2023-05-10T12:37:02;22.50;78.00
7204;DHT22;3643;52.460;13.322;2023-05-10T12:39:42;22.60;78.60
7204;DHT22;3643;52.460;13.322;2023-05-10T12:42:11;22.60;77.90
7204;DHT22;3643;52.460;13.322;2023-05-10T12:44:39;22.60;76.10
7204;DHT22;3643;52.460;13.322;2023-05-10T12:47:08;22.60;76.80
7204;DHT22;3643;52.460;13.322;2023-05-10T12:49:37;22.60;77.40
7204;DHT22;3643;52.460;13.322;2023-05-10T12:52:06;22.40;77.40
7204;DHT22;3643;52.460;13.322;2023-05-10T12:54:34;22.60;78.90
7204;DHT22;3643;52.460;13.322;2023-05-10T12:57:03;22.70;78.50
7204;DHT22;3643;52.460;13.322;2023-05-10T12:59:32;22.70;78.60
7204;DHT22;3643;52.460;13.322;2023-05-10T13:02:03;22.80;77.30
7204;DHT22;3643;52.460;13.322;2023-05-10T13:04:32;22.70;78.20
7204;DHT22;3643;52.460;13.322;2023-05-10T13:07:00;22.70;77.60
7204;DHT22;3643;52.460;13.322;2023-05-10T13:09:28;22.70;78.00
7204;DHT22;3643;52.460;13.322;2023-05-10T13:11:57;22.70;78.10
7204;DHT22;3643;52.460;13.322;2023-05-10T13:14:27;22.80;77.60
7204;DHT22;3643;52.460;13.322;2023-05-10T13:16:55;22.70;77.50
7204;DHT22;3643;52.460;13.322;2023-05-10T13:19:23;22.80;78.40
7204;DHT22;3643;52.460;13.322;2023-05-10T13:21:52;22.90;77.60
7204;DHT22;3643;52.460;13.322;2023-05-10T13:24:20;22.90;78.30
7204;DHT22;3643;52.460;13.322;2023-05-10T13:26:48;23.10;78.40
7204;DHT22;3643;52.460;13.322;2023-05-10T13:29:16;23.10;77.50
7204;DHT22;3643;52.460;13.322;2023-05-10T13:31:47;23.20;77.70
7204;DHT22;3643;52.460;13.322;2023-05-10T13:34:16;23.10;77.30
7204;DHT22;3643;52.460;13.322;2023-05-10T13:36:47;23.00;76.90
7204;DHT22;3643;52.460;13.322;2023-05-10T13:39:15;22.60;77.90
7204;DHT22;3643;52.460;13.322;2023-05-10T13:41:44;22.60;78.20
7204;DHT22;3643;52.460;13.322;2023-05-10T13:44:12;22.50;78.60
7204;DHT22;3643;52.460;13.322;2023-05-10T13:46:41;22.60;77.60
7204;DHT22;3643;52.460;13.322;2023-05-10T13:49:12;22.70;78.30
7204;DHT22;3643;52.460;13.322;2023-05-10T13:51:40;22.80;78.10
7204;DHT22;3643;52.460;13.322;2023-05-10T13:54:08;23.00;77.80
7204;DHT22;3643;52.460;13.322;2023-05-10T13:56:39;23.10;77.80
7204;DHT22;3643;52.460;13.322;2023-05-10T13:59:07;23.10;77.50
7204;DHT22;3643;52.460;13.322;2023-05-10T14:01:36;23.00;77.80
7204;DHT22;3643;52.460;13.322;2023-05-10T14:04:05;23.00;77.40
7204;DHT22;3643;52.460;13.322;2023-05-10T14:06:35;23.00;76.90
7204;DHT22;3643;52.460;13.322;2023-05-10T14:09:03;22.90;76.60
7204;DHT22;3643;52.460;13.322;2023-05-10T14:11:32;22.90;76.70
7204;DHT22;3643;52.460;13.322;2023-05-10T14:14:00;22.90;76.30
7204;DHT22;3643;52.460;13.322;2023-05-10T14:16:28;23.00;76.80
7204;DHT22;3643;52.460;13.322;2023-05-10T14:18:56;23.10;77.50
7204;DHT22;3643;52.460;13.322;2023-05-10T14:21:25;23.30;76.70
7204;DHT22;3643;52.460;13.322;2023-05-10T14:23:56;23.40;75.00
7204;DHT22;3643;52.460;13.322;2023-05-10T14:26:24;23.50;75.30
7204;DHT22;3643;52.460;13.322;2023-05-10T14:28:53;23.50;75.10
7204;DHT22;3643;52.460;13.322;2023-05-10T14:31:21;23.50;75.80
7204;DHT22;3643;52.460;13.322;2023-05-10T14:33:52;23.50;76.60
7204;DHT22;3643;52.460;13.322;2023-05-10T14:36:21;23.30;74.70
7204;DHT22;3643;52.460;13.322;2023-05-10T14:38:49;23.30;75.10
7204;DHT22;3643;52.460;13.322;2023-05-10T14:41:18;23.20;75.60
7204;DHT22;3643;52.460;13.322;2023-05-10T14:43:47;23.10;74.80
7204;DHT22;3643;52.460;13.322;2023-05-10T14:46:15;23.10;75.00
7204;DHT22;3643;52.460;13.322;2023-05-10T14:48:44;23.10;75.10
7204;DHT22;3643;52.460;13.322;2023-05-10T14:51:15;23.10;75.30
7204;DHT22;3643;52.460;13.322;2023-05-10T14:53:43;23.10;76.20
7204;DHT22;3643;52.460;13.322;2023-05-10T14:56:11;23.00;76.30
7204;DHT22;3643;52.460;13.322;2023-05-10T14:58:41;23.00;76.10
7204;DHT22;3643;52.460;13.322;2023-05-10T15:01:09;23.00;76.50
7204;DHT22;3643;52.460;13.322;2023-05-10T15:03:38;22.90;75.30
7204;DHT22;3643;52.460;13.322;2023-05-10T15:06:08;22.70;75.10
7204;DHT22;3643;52.460;13.322;2023-05-10T15:08:36;22.70;75.90
7204;DHT22;3643;52.460;13.322;2023-05-10T15:11:04;22.60;76.20
7204;DHT22;3643;52.460;13.322;2023-05-10T15:13:33;22.60;76.70
7204;DHT22;3643;52.460;13.322;2023-05-10T15:16:02;22.70;76.50
7204;DHT22;3643;52.460;13.322;2023-05-10T15:18:31;22.60;75.90
7204;DHT22;3643;52.460;13.322;2023-05-10T15:20:59;22.60;75.90
7204;DHT22;3643;52.460;13.322;2023-05-10T15:23:28;22.70;76.40
7204;DHT22;3643;52.460;13.322;2023-05-10T15:25:56;22.90;76.70
7204;DHT22;3643;52.460;13.322;2023-05-10T15:28:25;23.10;77.20
7204;DHT22;3643;52.460;13.322;2023-05-10T15:30:53;23.20;77.00
7204;DHT22;3643;52.460;13.322;2023-05-10T15:33:23;23.30;77.00
7204;DHT22;3643;52.460;13.322;2023-05-10T15:35:51;22.50;75.80
7204;DHT22;3643;52.460;13.322;2023-05-10T15:38:20;23.10;76.90
7204;DHT22;3643;52.460;13.322;2023-05-10T15:40:49;23.10;76.90
7204;DHT22;3643;52.460;13.322;2023-05-10T15:43:17;23.20;77.20
7204;DHT22;3643;52.460;13.322;2023-05-10T15:45:46;23.40;77.20
7204;DHT22;3643;52.460;13.322;2023-05-10T15:48:14;23.40;76.30
7204;DHT22;3643;52.460;13.322;2023-05-10T15:50:44;23.10;76.90
7204;DHT22;3643;52.460;13.322;2023-05-10T15:53:12;23.00;77.30
7204;DHT22;3643;52.460;13.322;2023-05-10T15:55:41;22.80;76.90
7204;DHT22;3643;52.460;13.322;2023-05-10T15:58:09;22.70;77.50
7204;DHT22;3643;52.460;13.322;2023-05-10T16:00:38;22.70;78.00
7204;DHT22;3643;52.460;13.322;2023-05-10T16:03:07;22.80;77.80
7204;DHT22;3643;52.460;13.322;2023-05-10T16:05:35;22.70;77.90
7204;DHT22;3643;52.460;13.322;2023-05-10T16:08:06;22.80;78.50
7204;DHT22;3643;52.460;13.322;2023-05-10T16:10:35;22.80;80.00
7204;DHT22;3643;52.460;13.322;2023-05-10T16:13:04;22.80;81.50
7204;DHT22;3643;52.460;13.322;2023-05-10T16:15:34;22.80;83.50
7204;DHT22;3643;52.460;13.322;2023-05-10T16:18:03;22.60;84.40
7204;DHT22;3643;52.460;13.322;2023-05-10T16:20:32;22.40;85.90
7204;DHT22;3643;52.460;13.322;2023-05-10T16:23:03;22.30;87.40
7204;DHT22;3643;52.460;13.322;2023-05-10T16:25:33;21.50;90.20
7204;DHT22;3643;52.460;13.322;2023-05-10T16:28:02;22.10;91.20
7204;DHT22;3643;52.460;13.322;2023-05-10T16:30:30;22.10;92.00
7204;DHT22;3643;52.460;13.322;2023-05-10T16:32:59;22.00;92.60
7204;DHT22;3643;52.460;13.322;2023-05-10T16:35:28;22.00;92.90
7204;DHT22;3643;52.460;13.322;2023-05-10T16:37:56;21.80;94.00
7204;DHT22;3643;52.460;13.322;2023-05-10T16:40:25;21.60;94.40
7204;DHT22;3643;52.460;13.322;2023-05-10T16:42:55;21.50;94.50
7204;DHT22;3643;52.460;13.322;2023-05-10T16:45:29;21.40;94.50
7204;DHT22;3643;52.460;13.322;2023-05-10T16:47:58;21.20;94.50
7204;DHT22;3643;52.460;13.322;2023-05-10T16:50:26;21.10;95.00
7204;DHT22;3643;52.460;13.322;2023-05-10T16:52:55;21.00;95.50
7204;DHT22;3643;52.460;13.322;2023-05-10T16:55:23;20.70;95.90
7204;DHT22;3643;52.460;13.322;2023-05-10T16:57:52;20.60;96.10
7204;DHT22;3643;52.460;13.322;2023-05-10T17:00:27;20.50;96.40
7204;DHT22;3643;52.460;13.322;2023-05-10T17:02:55;20.50;97.00
7204;DHT22;3643;52.460;13.322;2023-05-10T17:05:25;20.40;97.10
7204;DHT22;3643;52.460;13.322;2023-05-10T17:07:53;20.30;97.60
7204;DHT22;3643;52.460;13.322;2023-05-10T17:10:21;20.20;97.60
7204;DHT22;3643;52.460;13.322;2023-05-10T17:12:50;20.20;97.80
7204;DHT22;3643;52.460;13.322;2023-05-10T17:15:19;20.10;98.10
7204;DHT22;3643;52.460;13.322;2023-05-10T17:17:49;20.00;98.40
7204;DHT22;3643;52.460;13.322;2023-05-10T17:20:18;19.90;98.60
7204;DHT22;3643;52.460;13.322;2023-05-10T17:22:48;19.80;98.80
7204;DHT22;3643;52.460;13.322;2023-05-10T17:25:16;19.70;99.30
7204;DHT22;3643;52.460;13.322;2023-05-10T17:27:45;19.60;99.70
7204;DHT22;3643;52.460;13.322;2023-05-10T17:30:14;19.50;99.90
7204;DHT22;3643;52.460;13.322;2023-05-10T17:32:42;19.40;99.90
7204;DHT22;3643;52.460;13.322;2023-05-10T17:35:12;19.30;99.90
7204;DHT22;3643;52.460;13.322;2023-05-10T17:37:41;19.20;99.90
7204;DHT22;3643;52.460;13.322;2023-05-10T17:40:10;19.10;99.90
7204;DHT22;3643;52.460;13.322;2023-05-10T17:42:39;19.00;99.90
7204;DHT22;3643;52.460;13.322;2023-05-10T17:45:09;18.90;99.90
7204;DHT22;3643;52.460;13.322;2023-05-10T17:47:37;18.80;99.90
7204;DHT22;3643;52.460;13.322;2023-05-10T17:50:07;18.70;99.90
7204;DHT22;3643;52.460;13.322;2023-05-10T17:52:37;18.60;99.90
7204;DHT22;3643;52.460;13.322;2023-05-10T17:55:06;18.50;99.90
7204;DHT22;3643;52.460;13.322;2023-05-10T17:57:35;18.40;99.90
7204;DHT22;3643;52.460;13.322;2023-05-10T18:00:06;18.30;99.90
7204;DHT22;3643;52.460;13.322;2023-05-10T18:02:35;18.30;99.90
7204;DHT22;3643;52.460;13.322;2023-05-10T18:05:04;18.30;99.90
7204;DHT22;3643;52.460;13.322;2023-05-10T18:07:32;18.20;99.90
7204;DHT22;3643;52.460;13.322;2023-05-10T18:10:03;18.20;99.90
7204;DHT22;3643;52.460;13.322;2023-05-10T18:12:32;18.10;99.90
7204;DHT22;3643;52.460;13.322;2023-05-10T18:15:01;18.10;99.90
7204;DHT22;3643;52.460;13.322;2023-05-10T18:17:30;18.00;99.90
7204;DHT22;3643;52.460;13.322;2023-05-10T18:19:59;18.00;99.90